sensor_id;sensor_type;location;lat;lon;timestamp;temperature;humidity
12223;DHT22;6174;49.058;8.524;2023-04-03T05:01:31;4.60;99.90
12223;DHT22;6174;49.058;8.524;2023-04-03T05:03:57;4.50;99.90
12223;DHT22;6174;49.058;8.524;2023-04-03T05:06:24;4.50;99.90
12223;DHT22;6174;49.058;8.524;2023-04-03T05:08:51;4.40;99.90
12223;DHT22;6174;49.058;8.524;2023-04-03T05:11:18;4.40;99.90
12223;DHT22;6174;49.058;8.524;2023-04-03T05:13:45;4.30;99.90
12223;DHT22;6174;49.058;8.524;2023-04-03T05:16:12;4.40;99.90
12223;DHT22;6174;49.058;8.524;2023-04-03T05:18:40;4.30;99.90
12223;DHT22;6174;49.058;8.524;2023-04-03T05:21:07;4.30;99.90
12223;DHT22;6174;49.058;8.524;2023-04-03T05:23:34;4.30;99.90
12223;DHT22;6174;49.058;8.524;2023-04-03T05:26:00;4.20;99.90
12223;DHT22;6174;49.058;8.524;2023-04-03T05:28:27;4.30;99.90
12223;DHT22;6174;49.058;8.524;2023-04-03T05:30:54;4.20;99.90
12223;DHT22;6174;49.058;8.524;2023-04-03T05:33:21;4.20;99.90
12223;DHT22;6174;49.058;8.524;2023-04-03T05:35:50;4.10;99.90
12223;DHT22;6174;49.058;8.524;2023-04-03T05:38:17;4.10;99.90
12223;DHT22;6174;49.058;8.524;2023-04-03T05:40:44;4.10;99.90
12223;DHT22;6174;49.058;8.524;2023-04-03T05:43:10;4.10;99.90
12223;DHT22;6174;49.058;8.524;2023-04-03T05:45:37;4.10;99.90
12223;DHT22;6174;49.058;8.524;2023-04-03T05:48:04;4.20;99.90
12223;DHT22;6174;49.058;8.524;2023-04-03T05:50:31;4.20;99.90
12223;DHT22;6174;49.058;8.524;2023-04-03T05:52:59;4.20;99.90
12223;DHT22;6174;49.058;8.524;2023-04-03T05:55:26;4.20;99.90
12223;DHT22;6174;49.058;8.524;2023-04-03T05:57:53;4.30;99.90
12223;DHT22;6174;49.058;8.524;2023-04-03T06:00:20;4.30;99.90
12223;DHT22;6174;49.058;8.524;2023-04-03T06:02:48;4.30;99.90
12223;DHT22;6174;49.058;8.524;2023-04-03T06:05:14;4.40;99.90
12223;DHT22;6174;49.058;8.524;2023-04-03T06:07:41;4.40;99.90
12223;DHT22;6174;49.058;8.524;2023-04-03T06:10:11;4.40;99.90
12223;DHT22;6174;49.058;8.524;2023-04-03T06:12:38;4.50;99.90
12223;DHT22;6174;49.058;8.524;2023-04-03T06:15:06;4.50;99.90
12223;DHT22;6174;49.058;8.524;2023-04-03T06:17:35;4.60;99.90
12223;DHT22;6174;49.058;8.524;2023-04-03T06:20:03;4.60;99.90
12223;DHT22;6174;49.058;8.524;2023-04-03T06:22:30;4.60;99.90
12223;DHT22;6174;49.058;8.524;2023-04-03T06:24:57;4.70;99.90
12223;DHT22;6174;49.058;8.524;2023-04-03T06:27:25;4.70;99.90
12223;DHT22;6174;49.058;8.524;2023-04-03T06:29:52;4.70;99.90
12223;DHT22;6174;49.058;8.524;2023-04-03T06:32:19;4.80;99.90
12223;DHT22;6174;49.058;8.524;2023-04-03T06:34:46;4.90;99.90
12223;DHT22;6174;49.058;8.524;2023-04-03T06:37:15;5.00;99.90
12223;DHT22;6174;49.058;8.524;2023-04-03T06:39:42;5.00;99.90
12223;DHT22;6174;49.058;8.524;2023-04-03T06:42:08;5.00;99.90
12223;DHT22;6174;49.058;8.524;2023-04-03T06:44:36;5.00;99.90
12223;DHT22;6174;49.058;8.524;2023-04-03T06:47:03;5.10;99.90
12223;DHT22;6174;49.058;8.524;2023-04-03T06:49:30;5.10;99.90
12223;DHT22;6174;49.058;8.524;2023-04-03T06:51:57;5.20;99.90
12223;DHT22;6174;49.058;8.524;2023-04-03T06:54:24;5.40;99.90
12223;DHT22;6174;49.058;8.524;2023-04-03T06:56:51;5.50;99.90
12223;DHT22;6174;49.058;8.524;2023-04-03T06:59:18;5.70;99.90
12223;DHT22;6174;49.058;8.524;2023-04-03T07:01:46;5.70;99.90
12223;DHT22;6174;49.058;8.524;2023-04-03T07:04:13;5.80;99.90
12223;DHT22;6174;49.058;8.524;2023-04-03T07:06:40;5.80;99.90
12223;DHT22;6174;49.058;8.524;2023-04-03T07:09:07;5.90;99.90
12223;DHT22;6174;49.058;8.524;2023-04-03T07:11:34;6.10;99.90
12223;DHT22;6174;49.058;8.524;2023-04-03T07:14:01;6.40;99.90
12223;DHT22;6174;49.058;8.524;2023-04-03T07:16:29;6.70;99.90
12223;DHT22;6174;49.058;8.524;2023-04-03T07:18:57;7.00;99.70
12223;DHT22;6174;49.058;8.524;2023-04-03T07:21:24;7.20;99.10
12223;DHT22;6174;49.058;8.524;2023-04-03T07:23:51;7.50;98.00
12223;DHT22;6174;49.058;8.524;2023-04-03T07:26:18;7.70;97.40
12223;DHT22;6174;49.058;8.524;2023-04-03T07:28:46;8.10;97.60
12223;DHT22;6174;49.058;8.524;2023-04-03T07:31:14;8.40;96.40
12223;DHT22;6174;49.058;8.524;2023-04-03T07:33:42;8.70;95.80
12223;DHT22;6174;49.058;8.524;2023-04-03T07:36:15;8.90;95.30
12223;DHT22;6174;49.058;8.524;2023-04-03T07:38:42;8.90;93.90
12223;DHT22;6174;49.058;8.524;2023-04-03T07:41:11;8.70;94.60
12223;DHT22;6174;49.058;8.524;2023-04-03T07:43:40;8.60;94.60
12223;DHT22;6174;49.058;8.524;2023-04-03T07:46:07;8.40;94.60
12223;DHT22;6174;49.058;8.524;2023-04-03T07:48:34;8.30;95.00
12223;DHT22;6174;49.058;8.524;2023-04-03T07:51:02;8.20;95.20
12223;DHT22;6174;49.058;8.524;2023-04-03T07:53:31;8.20;96.00
12223;DHT22;6174;49.058;8.524;2023-04-03T07:55:58;8.10;95.40
12223;DHT22;6174;49.058;8.524;2023-04-03T07:58:25;7.90;95.30
12223;DHT22;6174;49.058;8.524;2023-04-03T08:00:52;7.90;95.90
12223;DHT22;6174;49.058;8.524;2023-04-03T08:03:19;8.00;97.00
12223;DHT22;6174;49.058;8.524;2023-04-03T08:05:47;8.00;96.00
12223;DHT22;6174;49.058;8.524;2023-04-03T08:08:16;8.10;96.00
12223;DHT22;6174;49.058;8.524;2023-04-03T08:10:48;8.00;96.60
12223;DHT22;6174;49.058;8.524;2023-04-03T08:13:15;7.90;96.50
12223;DHT22;6174;49.058;8.524;2023-04-03T08:15:42;7.90;96.50
12223;DHT22;6174;49.058;8.524;2023-04-03T08:18:09;7.90;97.00
12223;DHT22;6174;49.058;8.524;2023-04-03T08:20:37;8.00;96.50
12223;DHT22;6174;49.058;8.524;2023-04-03T08:23:04;8.20;96.00
12223;DHT22;6174;49.058;8.524;2023-04-03T08:25:30;8.30;96.40
12223;DHT22;6174;49.058;8.524;2023-04-03T08:27:58;8.40;96.70
12223;DHT22;6174;49.058;8.524;2023-04-03T08:30:25;8.60;96.10
12223;DHT22;6174;49.058;8.524;2023-04-03T08:32:52;8.50;95.30
12223;DHT22;6174;49.058;8.524;2023-04-03T08:35:19;8.50;95.10
12223;DHT22;6174;49.058;8.524;2023-04-03T08:37:46;8.50;94.40
12223;DHT22;6174;49.058;8.524;2023-04-03T08:40:15;8.50;93.90
12223;DHT22;6174;49.058;8.524;2023-04-03T08:42:54;8.60;93.60
12223;DHT22;6174;49.058;8.524;2023-04-03T08:45:37;8.70;94.40
12223;DHT22;6174;49.058;8.524;2023-04-03T08:48:08;8.80;94.90
12223;DHT22;6174;49.058;8.524;2023-04-03T08:50:40;8.90;94.40
12223;DHT22;6174;49.058;8.524;2023-04-03T08:53:14;9.00;95.10
12223;DHT22;6174;49.058;8.524;2023-04-03T08:55:43;9.20;94.00
12223;DHT22;6174;49.058;8.524;2023-04-03T08:58:12;9.20;92.10
12223;DHT22;6174;49.058;8.524;2023-04-03T09:00:45;9.30;92.00
12223;DHT22;6174;49.058;8.524;2023-04-03T09:03:14;9.40;92.10
12223;DHT22;6174;49.058;8.524;2023-04-03T09:05:45;9.40;91.60
12223;DHT22;6174;49.058;8.524;2023-04-03T09:08:21;9.40;91.80
12223;DHT22;6174;49.058;8.524;2023-04-03T09:10:49;9.30;91.00
12223;DHT22;6174;49.058;8.524;2023-04-03T09:13:24;9.30;91.70
12223;DHT22;6174;49.058;8.524;2023-04-03T09:15:55;9.20;91.50
12223;DHT22;6174;49.058;8.524;2023-04-03T09:18:26;9.20;91.50
12223;DHT22;6174;49.058;8.524;2023-04-03T09:20:59;9.20;89.00
12223;DHT22;6174;49.058;8.524;2023-04-03T09:23:30;9.30;90.30
12223;DHT22;6174;49.058;8.524;2023-04-03T09:26:02;9.40;89.80
12223;DHT22;6174;49.058;8.524;2023-04-03T09:28:31;9.50;89.30
12223;DHT22;6174;49.058;8.524;2023-04-03T09:31:06;9.50;86.40
12223;DHT22;6174;49.058;8.524;2023-04-03T09:33:40;9.40;84.60
12223;DHT22;6174;49.058;8.524;2023-04-03T09:36:07;9.30;85.60
12223;DHT22;6174;49.058;8.524;2023-04-03T09:38:34;9.30;87.90
12223;DHT22;6174;49.058;8.524;2023-04-03T09:41:06;9.20;86.00
12223;DHT22;6174;49.058;8.524;2023-04-03T09:43:33;9.10;84.10
12223;DHT22;6174;49.058;8.524;2023-04-03T09:46:25;8.80;85.30
12223;DHT22;6174;49.058;8.524;2023-04-03T09:48:57;8.60;87.50
12223;DHT22;6174;49.058;8.524;2023-04-03T09:51:26;8.50;85.50
12223;DHT22;6174;49.058;8.524;2023-04-03T09:53:54;8.60;88.60
12223;DHT22;6174;49.058;8.524;2023-04-03T09:56:23;8.70;90.40
12223;DHT22;6174;49.058;8.524;2023-04-03T09:58:52;8.90;87.00
12223;DHT22;6174;49.058;8.524;2023-04-03T10:01:32;9.00;89.20
12223;DHT22;6174;49.058;8.524;2023-04-03T10:04:08;9.20;87.20
12223;DHT22;6174;49.058;8.524;2023-04-03T10:06:37;9.50;88.00
12223;DHT22;6174;49.058;8.524;2023-04-03T10:09:17;9.60;85.30
12223;DHT22;6174;49.058;8.524;2023-04-03T10:11:58;9.70;85.90
12223;DHT22;6174;49.058;8.524;2023-04-03T10:14:25;10.00;87.30
12223;DHT22;6174;49.058;8.524;2023-04-03T10:16:59;10.10;85.10
12223;DHT22;6174;49.058;8.524;2023-04-03T10:19:39;10.30;84.70
12223;DHT22;6174;49.058;8.524;2023-04-03T10:22:16;10.30;81.80
12223;DHT22;6174;49.058;8.524;2023-04-03T10:24:52;10.30;81.80
12223;DHT22;6174;49.058;8.524;2023-04-03T10:27:27;10.40;84.70
12223;DHT22;6174;49.058;8.524;2023-04-03T10:30:04;10.50;82.90
12223;DHT22;6174;49.058;8.524;2023-04-03T10:32:47;10.20;78.70
12223;DHT22;6174;49.058;8.524;2023-04-03T10:35:25;9.90;81.30
12223;DHT22;6174;49.058;8.524;2023-04-03T10:38:01;9.70;80.40
12223;DHT22;6174;49.058;8.524;2023-04-03T10:40:32;9.60;82.00
12223;DHT22;6174;49.058;8.524;2023-04-03T10:43:06;9.50;82.50
12223;DHT22;6174;49.058;8.524;2023-04-03T10:45:57;9.30;80.90
12223;DHT22;6174;49.058;8.524;2023-04-03T10:48:37;9.20;80.30
12223;DHT22;6174;49.058;8.524;2023-04-03T10:51:20;9.00;81.60
12223;DHT22;6174;49.058;8.524;2023-04-03T10:53:55;9.00;80.60
12223;DHT22;6174;49.058;8.524;2023-04-03T10:56:30;9.00;81.00
12223;DHT22;6174;49.058;8.524;2023-04-03T10:59:05;9.00;81.10
12223;DHT22;6174;49.058;8.524;2023-04-03T11:01:35;9.00;81.90
12223;DHT22;6174;49.058;8.524;2023-04-03T11:04:06;8.90;76.00
12223;DHT22;6174;49.058;8.524;2023-04-03T11:06:36;8.90;76.90
12223;DHT22;6174;49.058;8.524;2023-04-03T11:09:15;8.90;77.90
12223;DHT22;6174;49.058;8.524;2023-04-03T11:11:43;8.80;73.60
12223;DHT22;6174;49.058;8.524;2023-04-03T11:14:17;8.70;76.20
12223;DHT22;6174;49.058;8.524;2023-04-03T11:16:54;8.70;76.50
12223;DHT22;6174;49.058;8.524;2023-04-03T11:19:32;8.70;79.30
12223;DHT22;6174;49.058;8.524;2023-04-03T11:22:04;8.70;77.10
12223;DHT22;6174;49.058;8.524;2023-04-03T11:24:36;8.60;77.50
12223;DHT22;6174;49.058;8.524;2023-04-03T11:27:05;8.70;80.10
12223;DHT22;6174;49.058;8.524;2023-04-03T11:29:38;8.70;77.90
12223;DHT22;6174;49.058;8.524;2023-04-03T11:32:17;8.80;79.20
12223;DHT22;6174;49.058;8.524;2023-04-03T11:34:51;8.60;76.20
12223;DHT22;6174;49.058;8.524;2023-04-03T11:37:26;8.60;77.90
12223;DHT22;6174;49.058;8.524;2023-04-03T11:39:58;8.60;78.80
12223;DHT22;6174;49.058;8.524;2023-04-03T11:42:33;8.60;79.10
12223;DHT22;6174;49.058;8.524;2023-04-03T11:45:34;8.70;80.50
12223;DHT22;6174;49.058;8.524;2023-04-03T11:48:03;8.60;80.50
12223;DHT22;6174;49.058;8.524;2023-04-03T11:50:39;8.50;80.00
12223;DHT22;6174;49.058;8.524;2023-04-03T11:53:25;8.40;78.60
12223;DHT22;6174;49.058;8.524;2023-04-03T11:55:55;8.50;82.50
12223;DHT22;6174;49.058;8.524;2023-04-03T11:58:24;8.60;83.20
12223;DHT22;6174;49.058;8.524;2023-04-03T12:00:56;8.60;80.40
12223;DHT22;6174;49.058;8.524;2023-04-03T12:09:26;8.60;81.80
12223;DHT22;6174;49.058;8.524;2023-04-03T12:11:55;8.70;82.70
12223;DHT22;6174;49.058;8.524;2023-04-03T12:14:23;8.70;82.70
12223;DHT22;6174;49.058;8.524;2023-04-03T12:16:52;8.90;83.50
12223;DHT22;6174;49.058;8.524;2023-04-03T12:19:34;9.00;81.40
12223;DHT22;6174;49.058;8.524;2023-04-03T12:22:10;9.10;81.70
12223;DHT22;6174;49.058;8.524;2023-04-03T12:24:40;9.10;79.60
12223;DHT22;6174;49.058;8.524;2023-04-03T12:27:30;9.00;78.60
12223;DHT22;6174;49.058;8.524;2023-04-03T12:30:16;8.90;79.10
12223;DHT22;6174;49.058;8.524;2023-04-03T12:33:02;8.90;76.50
12223;DHT22;6174;49.058;8.524;2023-04-03T12:35:35;8.90;77.40
12223;DHT22;6174;49.058;8.524;2023-04-03T12:38:29;9.00;79.20
12223;DHT22;6174;49.058;8.524;2023-04-03T12:41:13;9.00;81.00
12223;DHT22;6174;49.058;8.524;2023-04-03T12:43:56;9.00;79.70
12223;DHT22;6174;49.058;8.524;2023-04-03T12:46:33;9.00;80.50
12223;DHT22;6174;49.058;8.524;2023-04-03T12:49:02;8.90;77.90
12223;DHT22;6174;49.058;8.524;2023-04-03T12:51:41;9.40;79.80
12223;DHT22;6174;49.058;8.524;2023-04-03T12:54:14;9.00;79.70
12223;DHT22;6174;49.058;8.524;2023-04-03T12:56:44;8.90;79.30
12223;DHT22;6174;49.058;8.524;2023-04-03T12:59:15;8.70;78.70
12223;DHT22;6174;49.058;8.524;2023-04-03T13:01:43;8.70;79.90
12223;DHT22;6174;49.058;8.524;2023-04-03T13:04:10;8.70;79.60
12223;DHT22;6174;49.058;8.524;2023-04-03T13:06:40;8.70;80.60
12223;DHT22;6174;49.058;8.524;2023-04-03T13:09:19;8.80;82.20
12223;DHT22;6174;49.058;8.524;2023-04-03T13:11:49;8.90;80.60
12223;DHT22;6174;49.058;8.524;2023-04-03T13:14:20;8.90;78.90
12223;DHT22;6174;49.058;8.524;2023-04-03T13:16:55;8.80;75.90
12223;DHT22;6174;49.058;8.524;2023-04-03T13:19:24;8.80;75.20
12223;DHT22;6174;49.058;8.524;2023-04-03T13:21:56;8.80;74.40
12223;DHT22;6174;49.058;8.524;2023-04-03T13:24:26;9.50;73.50
12223;DHT22;6174;49.058;8.524;2023-04-03T13:26:54;8.80;72.70
12223;DHT22;6174;49.058;8.524;2023-04-03T13:29:24;8.90;73.70
12223;DHT22;6174;49.058;8.524;2023-04-03T13:31:53;8.80;71.40
12223;DHT22;6174;49.058;8.524;2023-04-03T13:34:22;8.90;71.60
12223;DHT22;6174;49.058;8.524;2023-04-03T13:36:57;9.00;70.70
12223;DHT22;6174;49.058;8.524;2023-04-03T13:39:27;9.10;71.30
12223;DHT22;6174;49.058;8.524;2023-04-03T13:41:57;9.20;69.50
12223;DHT22;6174;49.058;8.524;2023-04-03T13:44:31;9.20;70.90
12223;DHT22;6174;49.058;8.524;2023-04-03T13:47:00;9.00;67.90
12223;DHT22;6174;49.058;8.524;2023-04-03T13:49:33;8.90;70.20
12223;DHT22;6174;49.058;8.524;2023-04-03T13:52:01;8.80;71.90
12223;DHT22;6174;49.058;8.524;2023-04-03T13:54:31;8.70;70.90
12223;DHT22;6174;49.058;8.524;2023-04-03T13:57:01;8.80;78.00
12223;DHT22;6174;49.058;8.524;2023-04-03T13:59:30;9.10;78.40
12223;DHT22;6174;49.058;8.524;2023-04-03T14:02:13;8.70;79.40
12223;DHT22;6174;49.058;8.524;2023-04-03T14:04:52;8.80;80.80
12223;DHT22;6174;49.058;8.524;2023-04-03T14:07:22;9.00;80.80
12223;DHT22;6174;49.058;8.524;2023-04-03T14:09:49;9.00;80.40
12223;DHT22;6174;49.058;8.524;2023-04-03T14:12:24;10.00;81.20
12223;DHT22;6174;49.058;8.524;2023-04-03T14:14:52;9.00;81.00
12223;DHT22;6174;49.058;8.524;2023-04-03T14:17:22;8.90;80.10
12223;DHT22;6174;49.058;8.524;2023-04-03T14:19:49;8.80;79.40
12223;DHT22;6174;49.058;8.524;2023-04-03T14:22:18;8.70;78.50
12223;DHT22;6174;49.058;8.524;2023-04-03T14:24:47;8.60;76.90
12223;DHT22;6174;49.058;8.524;2023-04-03T14:27:19;8.50;78.30
12223;DHT22;6174;49.058;8.524;2023-04-03T14:29:48;8.50;78.70
12223;DHT22;6174;49.058;8.524;2023-04-03T14:32:16;8.50;78.10
12223;DHT22;6174;49.058;8.524;2023-04-03T14:34:43;8.50;78.00
12223;DHT22;6174;49.058;8.524;2023-04-03T14:37:12;8.50;75.90
12223;DHT22;6174;49.058;8.524;2023-04-03T14:39:40;8.40;75.00
12223;DHT22;6174;49.058;8.524;2023-04-03T14:42:12;8.40;74.30
12223;DHT22;6174;49.058;8.524;2023-04-03T14:44:40;8.40;77.30
12223;DHT22;6174;49.058;8.524;2023-04-03T14:47:10;8.40;77.90
12223;DHT22;6174;49.058;8.524;2023-04-03T14:49:37;8.40;77.60
12223;DHT22;6174;49.058;8.524;2023-04-03T14:52:04;8.50;74.90
12223;DHT22;6174;49.058;8.524;2023-04-03T14:54:31;8.70;74.50
12223;DHT22;6174;49.058;8.524;2023-04-03T14:56:59;8.70;75.80
12223;DHT22;6174;49.058;8.524;2023-04-03T14:59:26;8.70;74.40
12223;DHT22;6174;49.058;8.524;2023-04-03T15:01:54;8.70;75.60
12223;DHT22;6174;49.058;8.524;2023-04-03T15:04:21;8.60;74.30
12223;DHT22;6174;49.058;8.524;2023-04-03T15:06:49;8.50;74.70
12223;DHT22;6174;49.058;8.524;2023-04-03T15:09:20;8.30;71.70
12223;DHT22;6174;49.058;8.524;2023-04-03T15:11:47;8.40;72.90
12223;DHT22;6174;49.058;8.524;2023-04-03T15:14:14;8.40;71.90
12223;DHT22;6174;49.058;8.524;2023-04-03T15:16:41;8.60;72.60
12223;DHT22;6174;49.058;8.524;2023-04-03T15:19:09;8.70;72.00
12223;DHT22;6174;49.058;8.524;2023-04-03T15:21:36;8.60;72.10
12223;DHT22;6174;49.058;8.524;2023-04-03T15:24:03;8.60;70.60
12223;DHT22;6174;49.058;8.524;2023-04-03T15:26:30;8.60;73.30
12223;DHT22;6174;49.058;8.524;2023-04-03T15:28:58;8.50;75.70
12223;DHT22;6174;49.058;8.524;2023-04-03T15:31:24;8.40;74.40
12223;DHT22;6174;49.058;8.524;2023-04-03T15:33:51;8.30;75.20
12223;DHT22;6174;49.058;8.524;2023-04-03T15:36:19;8.40;74.30
12223;DHT22;6174;49.058;8.524;2023-04-03T15:38:46;8.60;74.70
12223;DHT22;6174;49.058;8.524;2023-04-03T15:41:13;8.70;75.40
12223;DHT22;6174;49.058;8.524;2023-04-03T15:43:40;8.80;73.80
12223;DHT22;6174;49.058;8.524;2023-04-03T15:46:07;8.90;73.80
12223;DHT22;6174;49.058;8.524;2023-04-03T15:48:34;8.90;73.80
12223;DHT22;6174;49.058;8.524;2023-04-03T15:51:02;8.90;72.20
12223;DHT22;6174;49.058;8.524;2023-04-03T15:53:30;8.70;69.90
12223;DHT22;6174;49.058;8.524;2023-04-03T15:55:56;8.60;71.60
12223;DHT22;6174;49.058;8.524;2023-04-03T15:58:23;8.40;72.80
12223;DHT22;6174;49.058;8.524;2023-04-03T16:00:50;8.30;71.50
12223;DHT22;6174;49.058;8.524;2023-04-03T16:03:19;8.20;69.20
12223;DHT22;6174;49.058;8.524;2023-04-03T16:05:50;8.20;70.00
12223;DHT22;6174;49.058;8.524;2023-04-03T16:08:17;8.20;71.30
12223;DHT22;6174;49.058;8.524;2023-04-03T16:10:46;8.30;69.10
12223;DHT22;6174;49.058;8.524;2023-04-03T16:13:12;8.30;68.50
12223;DHT22;6174;49.058;8.524;2023-04-03T16:15:40;8.30;71.10
12223;DHT22;6174;49.058;8.524;2023-04-03T16:18:08;8.30;70.40
12223;DHT22;6174;49.058;8.524;2023-04-03T16:20:35;8.30;70.30
12223;DHT22;6174;49.058;8.524;2023-04-03T16:23:02;8.30;70.20
12223;DHT22;6174;49.058;8.524;2023-04-03T16:25:29;8.20;70.10
12223;DHT22;6174;49.058;8.524;2023-04-03T16:27:57;8.20;71.20
12223;DHT22;6174;49.058;8.524;2023-04-03T16:30:24;8.10;71.50
12223;DHT22;6174;49.058;8.524;2023-04-03T16:32:51;8.10;72.20
12223;DHT22;6174;49.058;8.524;2023-04-03T16:35:19;8.20;71.20
12223;DHT22;6174;49.058;8.524;2023-04-03T16:37:45;8.20;71.00
12223;DHT22;6174;49.058;8.524;2023-04-03T16:40:12;8.20;69.90
12223;DHT22;6174;49.058;8.524;2023-04-03T16:42:39;8.20;69.40
12223;DHT22;6174;49.058;8.524;2023-04-03T16:45:08;8.20;70.50
12223;DHT22;6174;49.058;8.524;2023-04-03T16:47:35;8.10;70.90
12223;DHT22;6174;49.058;8.524;2023-04-03T16:50:03;8.10;72.30
12223;DHT22;6174;49.058;8.524;2023-04-03T16:52:29;8.10;70.20
12223;DHT22;6174;49.058;8.524;2023-04-03T16:54:56;8.10;71.30
12223;DHT22;6174;49.058;8.524;2023-04-03T16:57:24;8.10;71.90
12223;DHT22;6174;49.058;8.524;2023-04-03T16:59:51;8.10;70.80
12223;DHT22;6174;49.058;8.524;2023-04-03T17:02:20;8.00;69.40
12223;DHT22;6174;49.058;8.524;2023-04-03T17:04:49;8.00;69.60
12223;DHT22;6174;49.058;8.524;2023-04-03T17:07:16;8.00;71.00
12223;DHT22;6174;49.058;8.524;2023-04-03T17:09:43;7.90;71.80
12223;DHT22;6174;49.058;8.524;2023-04-03T17:12:10;7.90;70.80
12223;DHT22;6174;49.058;8.524;2023-04-03T17:14:37;7.90;72.80
12223;DHT22;6174;49.058;8.524;2023-04-03T17:17:04;7.90;71.20
12223;DHT22;6174;49.058;8.524;2023-04-03T17:19:33;7.90;71.40
12223;DHT22;6174;49.058;8.524;2023-04-03T17:22:00;7.80;73.40
12223;DHT22;6174;49.058;8.524;2023-04-03T17:24:27;7.70;73.60
12223;DHT22;6174;49.058;8.524;2023-04-03T17:26:54;7.70;72.90
12223;DHT22;6174;49.058;8.524;2023-04-03T17:29:21;7.60;72.10
12223;DHT22;6174;49.058;8.524;2023-04-03T17:31:47;7.60;71.70
12223;DHT22;6174;49.058;8.524;2023-04-03T17:34:14;7.50;73.00
12223;DHT22;6174;49.058;8.524;2023-04-03T17:36:42;7.50;72.30
12223;DHT22;6174;49.058;8.524;2023-04-03T17:39:09;7.40;71.70
12223;DHT22;6174;49.058;8.524;2023-04-03T17:41:36;7.40;73.40
12223;DHT22;6174;49.058;8.524;2023-04-03T17:44:03;7.40;73.20
12223;DHT22;6174;49.058;8.524;2023-04-03T17:46:30;7.30;72.90
12223;DHT22;6174;49.058;8.524;2023-04-03T17:48:57;7.30;73.80
12223;DHT22;6174;49.058;8.524;2023-04-03T17:51:26;7.30;72.80
12223;DHT22;6174;49.058;8.524;2023-04-03T17:53:55;7.20;72.80
12223;DHT22;6174;49.058;8.524;2023-04-03T17:56:23;7.20;73.10
12223;DHT22;6174;49.058;8.524;2023-04-03T17:58:52;7.10;72.70
12223;DHT22;6174;49.058;8.524;2023-04-03T18:01:21;7.10;72.90
12223;DHT22;6174;49.058;8.524;2023-04-03T18:03:50;7.10;73.10
12223;DHT22;6174;49.058;8.524;2023-04-03T18:06:19;7.10;73.20
12223;DHT22;6174;49.058;8.524;2023-04-03T18:08:48;7.00;73.30
12223;DHT22;6174;49.058;8.524;2023-04-03T18:11:17;7.00;73.40
12223;DHT22;6174;49.058;8.524;2023-04-03T18:13:46;6.90;73.30
12223;DHT22;6174;49.058;8.524;2023-04-03T18:16:13;6.90;74.10
12223;DHT22;6174;49.058;8.524;2023-04-03T18:18:40;6.80;74.00
12223;DHT22;6174;49.058;8.524;2023-04-03T18:21:09;6.80;73.70
12223;DHT22;6174;49.058;8.524;2023-04-03T18:23:39;6.70;73.80
12223;DHT22;6174;49.058;8.524;2023-04-03T18:26:08;6.70;74.20
12223;DHT22;6174;49.058;8.524;2023-04-03T18:28:37;6.60;74.30
12223;DHT22;6174;49.058;8.524;2023-04-03T18:31:07;6.60;74.40
12223;DHT22;6174;49.058;8.524;2023-04-03T18:33:35;6.60;74.50
12223;DHT22;6174;49.058;8.524;2023-04-03T18:36:03;6.50;74.70
12223;DHT22;6174;49.058;8.524;2023-04-03T18:38:30;6.50;74.20
12223;DHT22;6174;49.058;8.524;2023-04-03T18:40:56;6.40;74.10
12223;DHT22;6174;49.058;8.524;2023-04-03T18:43:24;6.40;74.30
12223;DHT22;6174;49.058;8.524;2023-04-03T18:45:53;6.40;73.90
12223;DHT22;6174;49.058;8.524;2023-04-03T18:48:20;6.30;73.90
12223;DHT22;6174;49.058;8.524;2023-04-03T18:50:47;6.30;73.30
12223;DHT22;6174;49.058;8.524;2023-04-03T18:53:14;6.30;72.40
12223;DHT22;6174;49.058;8.524;2023-04-03T18:55:41;6.30;73.30
12223;DHT22;6174;49.058;8.524;2023-04-03T18:58:07;6.30;73.10
12223;DHT22;6174;49.058;8.524;2023-04-03T19:00:34;6.30;72.70
12223;DHT22;6174;49.058;8.524;2023-04-03T19:03:02;6.30;72.60
12223;DHT22;6174;49.058;8.524;2023-04-03T19:05:30;6.30;73.20
12223;DHT22;6174;49.058;8.524;2023-04-03T19:07:57;6.20;73.00
12223;DHT22;6174;49.058;8.524;2023-04-03T19:10:23;6.20;72.60
12223;DHT22;6174;49.058;8.524;2023-04-03T19:12:51;6.10;73.30
12223;DHT22;6174;49.058;8.524;2023-04-03T19:15:20;6.10;73.20
12223;DHT22;6174;49.058;8.524;2023-04-03T19:17:47;6.10;73.60
12223;DHT22;6174;49.058;8.524;2023-04-03T19:20:15;6.00;73.70
12223;DHT22;6174;49.058;8.524;2023-04-03T19:22:42;6.00;73.40
12223;DHT22;6174;49.058;8.524;2023-04-03T19:25:09;6.00;73.20
12223;DHT22;6174;49.058;8.524;2023-04-03T19:27:37;6.00;73.10
12223;DHT22;6174;49.058;8.524;2023-04-03T19:30:06;6.00;72.60
12223;DHT22;6174;49.058;8.524;2023-04-03T19:32:33;6.00;72.80
12223;DHT22;6174;49.058;8.524;2023-04-03T19:35:00;6.00;73.30
12223;DHT22;6174;49.058;8.524;2023-04-03T19:37:28;5.90;73.30
12223;DHT22;6174;49.058;8.524;2023-04-03T19:39:55;5.90;73.20
12223;DHT22;6174;49.058;8.524;2023-04-03T19:42:22;5.90;73.20
12223;DHT22;6174;49.058;8.524;2023-04-03T19:44:50;5.90;73.10
12223;DHT22;6174;49.058;8.524;2023-04-03T19:47:17;5.90;73.90
12223;DHT22;6174;49.058;8.524;2023-04-03T19:49:46;5.90;73.60
12223;DHT22;6174;49.058;8.524;2023-04-03T19:52:13;5.80;74.10
12223;DHT22;6174;49.058;8.524;2023-04-03T19:54:42;5.90;73.40
12223;DHT22;6174;49.058;8.524;2023-04-03T19:57:09;5.80;74.40
12223;DHT22;6174;49.058;8.524;2023-04-03T19:59:36;5.80;75.50
12223;DHT22;6174;49.058;8.524;2023-04-03T20:02:02;5.70;75.00
12223;DHT22;6174;49.058;8.524;2023-04-03T20:04:29;5.70;75.50
12223;DHT22;6174;49.058;8.524;2023-04-03T20:06:56;5.70;75.00
12223;DHT22;6174;49.058;8.524;2023-04-03T20:09:22;5.70;75.40
12223;DHT22;6174;49.058;8.524;2023-04-03T20:11:50;5.60;75.40
12223;DHT22;6174;49.058;8.524;2023-04-03T20:14:17;5.60;75.70
12223;DHT22;6174;49.058;8.524;2023-04-03T20:16:44;5.50;75.80
12223;DHT22;6174;49.058;8.524;2023-04-03T20:19:11;5.50;76.30
12223;DHT22;6174;49.058;8.524;2023-04-03T20:21:38;5.40;76.70
12223;DHT22;6174;49.058;8.524;2023-04-03T20:24:06;5.40;76.50
12223;DHT22;6174;49.058;8.524;2023-04-03T20:26:33;5.40;77.40
12223;DHT22;6174;49.058;8.524;2023-04-03T20:29:03;5.30;77.50
12223;DHT22;6174;49.058;8.524;2023-04-03T20:31:30;5.30;77.60
12223;DHT22;6174;49.058;8.524;2023-04-03T20:33:58;5.30;78.40
12223;DHT22;6174;49.058;8.524;2023-04-03T20:36:25;5.30;77.90
12223;DHT22;6174;49.058;8.524;2023-04-03T20:38:53;5.20;77.90
12223;DHT22;6174;49.058;8.524;2023-04-03T20:41:20;5.20;78.50
12223;DHT22;6174;49.058;8.524;2023-04-03T20:43:47;5.20;78.80
12223;DHT22;6174;49.058;8.524;2023-04-03T20:46:15;5.10;78.30
12223;DHT22;6174;49.058;8.524;2023-04-03T20:48:44;5.10;78.40
12223;DHT22;6174;49.058;8.524;2023-04-03T20:51:12;5.10;78.40
12223;DHT22;6174;49.058;8.524;2023-04-03T20:53:39;5.10;79.00
12223;DHT22;6174;49.058;8.524;2023-04-03T20:56:06;5.00;79.10
12223;DHT22;6174;49.058;8.524;2023-04-03T20:58:34;5.00;79.10
12223;DHT22;6174;49.058;8.524;2023-04-03T21:01:11;5.00;79.20
12223;DHT22;6174;49.058;8.524;2023-04-03T21:03:39;4.90;79.80
12223;DHT22;6174;49.058;8.524;2023-04-03T21:21:16;4.80;80.10
12223;DHT22;6174;49.058;8.524;2023-04-03T21:23:44;4.80;80.50
12223;DHT22;6174;49.058;8.524;2023-04-03T21:26:12;4.80;80.20
12223;DHT22;6174;49.058;8.524;2023-04-03T21:28:39;4.70;80.30
12223;DHT22;6174;49.058;8.524;2023-04-03T21:31:06;4.70;80.10
12223;DHT22;6174;49.058;8.524;2023-04-03T21:33:34;4.70;80.50
12223;DHT22;6174;49.058;8.524;2023-04-03T21:36:01;4.60;79.50
12223;DHT22;6174;49.058;8.524;2023-04-03T21:38:28;4.60;80.20